ジャカルタ の空港の天気 - METARとTAF

スカルノハッタ国際空港 ( WIII / CGK ) - インドネシア バンテン州、Cengkareng ( ジャカルタ近郊)
飛行場実況気象(Metar)
観測時間06/18 02:30 WIB (06/17 19:30 UTC)
風向・風速南南東 3m/s
視程6000m
天気現象
少しの雲 雲底高度 610m
気温26℃
湿度79%
気圧1011hPa
METARWIII 171930Z 16005KT 6000 FEW020 26/22 Q1011 NOSIG
過去の天気等 Google飛行場航空写真 Wunderground天気予報

過去48時間のMETAR

飛行場予報(TAF)
発表時間: 6/18 00:00 WIB (6/17 17:00 UTC)
予報対象時間: 18日1時 WIB ~ 19日7時 WIB
風向・風速南南西 3m/s
視程4000m
天気現象煙霧
全天の4割程度の雲 雲底高度 610m
18日9時 WIB ~ 18日11時 WIB に徐々に
風向・風速東北東 5m/s
視程9000m
天気現象運行に影響にある天気現象が終了
TAF WIII 171700Z 1718/1824 20005KT 4000 HZ SCT020
BECMG 1802/1804 07010KT 9000 NSW